createdAt,value
2023-03-15T00:01:14.818Z,1.77
2023-03-15T00:03:42.002Z,1.47
2023-03-15T00:06:08.682Z,1.20
2023-03-15T00:08:35.197Z,1.33
2023-03-15T00:11:01.991Z,1.60
2023-03-15T00:13:28.491Z,1.27
2023-03-15T00:15:58.647Z,1.37
2023-03-15T00:18:26.089Z,1.33
2023-03-15T00:20:52.932Z,1.13
2023-03-15T00:23:19.463Z,0.93
2023-03-15T00:25:47.322Z,1.50
2023-03-15T00:28:14.468Z,1.17
2023-03-15T00:30:40.966Z,1.57
2023-03-15T00:33:07.443Z,1.30
2023-03-15T00:35:34.333Z,1.40
2023-03-15T00:38:00.823Z,1.10
2023-03-15T00:40:27.613Z,1.40
2023-03-15T00:42:54.074Z,1.00
2023-03-15T00:45:21.707Z,1.10
2023-03-15T00:47:52.343Z,1.40
2023-03-15T00:50:19.604Z,1.07
2023-03-15T00:52:46.170Z,1.20
2023-03-15T00:55:16.048Z,1.30
2023-03-15T00:57:43.670Z,1.30
2023-03-15T01:00:16.759Z,1.37
2023-03-15T01:02:43.383Z,1.73
2023-03-15T01:05:10.491Z,1.20
2023-03-15T01:07:37.337Z,1.43
2023-03-15T01:10:05.405Z,1.47
2023-03-15T01:12:33.069Z,0.80
2023-03-15T01:15:00.686Z,1.33
2023-03-15T01:17:27.179Z,1.40
2023-03-15T01:19:53.656Z,1.40
2023-03-15T01:22:20.614Z,1.07
2023-03-15T01:24:47.100Z,1.57
2023-03-15T01:27:13.695Z,1.40
2023-03-15T01:29:40.193Z,1.33
2023-03-15T01:32:07.135Z,1.27
2023-03-15T01:34:34.415Z,1.00
2023-03-15T01:37:01.064Z,1.30
2023-03-15T01:39:27.557Z,1.23
2023-03-15T01:41:54.042Z,1.10
2023-03-15T01:44:21.107Z,1.80
2023-03-15T01:46:47.685Z,1.23
2023-03-15T01:49:18.066Z,1.23
2023-03-15T01:52:01.596Z,0.90
2023-03-15T01:54:34.665Z,1.30
2023-03-15T01:57:04.801Z,1.10
2023-03-15T01:59:33.803Z,1.10
2023-03-15T02:02:00.994Z,1.10
2023-03-15T02:04:39.799Z,1.33
2023-03-15T02:07:07.419Z,1.63
2023-03-15T02:10:00.214Z,0.97
2023-03-15T02:12:28.093Z,1.30
2023-03-15T02:14:54.926Z,1.33
2023-03-15T02:17:28.361Z,1.47
2023-03-15T02:20:27.382Z,0.80
2023-03-15T02:22:57.053Z,1.43
2023-03-15T02:25:30.699Z,1.50
2023-03-15T02:27:57.601Z,1.30
2023-03-15T02:30:24.246Z,1.47
2023-03-15T02:32:50.862Z,1.00
2023-03-15T02:35:30.031Z,1.57
2023-03-15T02:37:56.537Z,0.93
2023-03-15T02:40:27.780Z,1.10
2023-03-15T02:42:57.931Z,1.40
2023-03-15T02:45:25.581Z,0.80
2023-03-15T02:47:52.144Z,1.00
2023-03-15T02:50:18.813Z,1.13
2023-03-15T02:52:45.490Z,1.17
2023-03-15T02:55:12.104Z,1.00
2023-03-15T02:57:39.033Z,1.20
2023-03-15T03:00:14.352Z,1.47
2023-03-15T03:02:41.870Z,1.23
2023-03-15T03:05:08.842Z,1.40
2023-03-15T03:07:35.481Z,1.23
2023-03-15T03:10:02.390Z,1.07
2023-03-15T03:12:28.845Z,1.43
2023-03-15T03:14:56.700Z,1.30
2023-03-15T03:17:23.735Z,1.10
2023-03-15T03:19:51.714Z,1.00
2023-03-15T03:22:18.205Z,1.53
2023-03-15T03:24:46.059Z,1.30
2023-03-15T03:27:17.417Z,1.17
2023-03-15T03:29:43.990Z,0.90
2023-03-15T03:32:10.618Z,1.10
2023-03-15T03:34:37.198Z,1.60
2023-03-15T03:37:03.902Z,1.43
2023-03-15T03:39:30.898Z,1.40
2023-03-15T03:41:57.382Z,1.20
2023-03-15T03:44:23.831Z,1.30
2023-03-15T03:46:50.322Z,1.03
2023-03-15T03:49:16.826Z,1.40
2023-03-15T03:51:43.307Z,1.60
2023-03-15T03:54:09.818Z,1.10
2023-03-15T03:56:36.301Z,1.10
2023-03-15T03:59:02.781Z,1.30
2023-03-15T04:01:29.240Z,1.10
2023-03-15T04:03:55.710Z,1.20
2023-03-15T04:06:22.618Z,1.40
2023-03-15T04:08:49.228Z,1.23
2023-03-15T04:11:17.588Z,1.43
2023-03-15T04:13:45.425Z,1.70
2023-03-15T04:16:12.772Z,1.00
2023-03-15T04:18:40.276Z,1.30
2023-03-15T04:21:10.720Z,1.60
2023-03-15T04:23:38.190Z,1.70
2023-03-15T04:26:07.961Z,1.27
2023-03-15T04:28:34.528Z,1.10
2023-03-15T04:31:01.004Z,1.40
2023-03-15T04:33:28.280Z,1.50
2023-03-15T04:35:54.784Z,1.30
2023-03-15T04:38:27.042Z,1.33
2023-03-15T04:40:54.850Z,1.30
2023-03-15T04:43:22.246Z,1.60
2023-03-15T04:45:48.720Z,1.57
2023-03-15T04:48:15.177Z,1.83
2023-03-15T04:50:41.652Z,1.40
2023-03-15T04:53:08.133Z,1.10
2023-03-15T04:55:34.573Z,1.50
2023-03-15T04:58:01.021Z,1.20
2023-03-15T05:00:27.579Z,1.37
2023-03-15T05:02:55.207Z,1.53
2023-03-15T05:05:23.794Z,1.70
2023-03-15T05:07:50.508Z,1.70
2023-03-15T05:10:17.475Z,1.67
2023-03-15T05:12:43.970Z,1.70
2023-03-15T05:15:10.879Z,1.73
2023-03-15T05:17:37.412Z,1.70
2023-03-15T05:20:11.814Z,1.67
2023-03-15T05:22:39.291Z,1.50
2023-03-15T05:25:06.281Z,1.77
2023-03-15T05:27:34.026Z,1.43
2023-03-15T05:30:03.924Z,1.23
2023-03-15T05:32:34.331Z,1.83
2023-03-15T05:35:01.724Z,1.43
2023-03-15T05:37:28.234Z,1.73
2023-03-15T05:39:54.727Z,1.30
2023-03-15T05:42:25.320Z,1.70
2023-03-15T05:44:52.915Z,1.63
2023-03-15T05:47:19.728Z,1.70
2023-03-15T05:49:46.733Z,1.63
2023-03-15T05:52:13.202Z,1.20
2023-03-15T05:54:39.807Z,1.27
2023-03-15T05:57:06.517Z,1.80
2023-03-15T05:59:33.412Z,1.60
2023-03-15T06:01:59.881Z,1.10
2023-03-15T06:04:26.375Z,1.50
2023-03-15T06:06:53.305Z,1.87
2023-03-15T06:09:19.896Z,1.67
2023-03-15T06:11:46.375Z,2.10
2023-03-15T06:14:12.852Z,2.20
2023-03-15T06:16:39.404Z,2.67
2023-03-15T06:19:05.922Z,1.80
2023-03-15T06:21:32.410Z,1.83
2023-03-15T06:23:58.939Z,1.90
2023-03-15T06:26:25.513Z,2.23
2023-03-15T06:28:51.986Z,1.87
2023-03-15T06:31:18.526Z,2.20
2023-03-15T06:33:45.149Z,2.27
2023-03-15T06:36:11.926Z,2.30
2023-03-15T06:38:38.473Z,2.10
2023-03-15T06:41:05.240Z,2.47
2023-03-15T06:43:31.913Z,2.13
2023-03-15T06:46:00.091Z,2.20
2023-03-15T06:48:28.052Z,1.70
2023-03-15T06:50:54.592Z,1.90
2023-03-15T06:53:21.041Z,2.10
2023-03-15T06:55:48.070Z,2.37
2023-03-15T06:58:14.519Z,1.90
2023-03-15T07:00:41.547Z,2.70
2023-03-15T07:03:08.092Z,2.13
2023-03-15T07:05:34.550Z,2.20
2023-03-15T07:08:00.985Z,2.33
2023-03-15T07:10:27.393Z,2.10
2023-03-15T07:12:53.803Z,2.30
2023-03-15T07:15:20.261Z,2.63
2023-03-15T07:17:46.706Z,2.53
2023-03-15T07:20:13.115Z,2.40
2023-03-15T07:22:39.530Z,2.50
2023-03-15T07:25:07.425Z,2.70
2023-03-15T07:27:34.011Z,2.90
2023-03-15T07:30:01.077Z,2.60
2023-03-15T07:32:27.609Z,2.23
2023-03-15T07:34:58.126Z,2.63
2023-03-15T07:37:24.562Z,2.80
2023-03-15T07:39:50.974Z,3.27
2023-03-15T07:42:17.423Z,3.10
2023-03-15T07:44:43.916Z,3.37
2023-03-15T07:47:10.759Z,2.70
2023-03-15T07:49:37.243Z,3.80
2023-03-15T07:52:03.838Z,3.73
2023-03-15T07:54:31.694Z,3.30
2023-03-15T07:56:58.091Z,3.30
2023-03-15T07:59:24.538Z,3.83
2023-03-15T08:01:51.380Z,4.43
2023-03-15T08:04:17.910Z,4.10
2023-03-15T08:06:44.595Z,3.70
2023-03-15T08:09:12.027Z,3.40
2023-03-15T08:11:38.455Z,3.70
2023-03-15T08:14:04.872Z,3.43
2023-03-15T08:16:31.383Z,3.47
2023-03-15T08:18:57.840Z,3.50
2023-03-15T08:21:24.245Z,3.97
2023-03-15T08:23:50.653Z,3.77
2023-03-15T08:26:17.206Z,3.70
2023-03-15T08:28:43.654Z,3.63
2023-03-15T08:31:10.196Z,4.03
2023-03-15T08:33:36.691Z,3.40
2023-03-15T08:36:03.305Z,3.40
2023-03-15T08:38:29.765Z,3.03
2023-03-15T08:40:57.266Z,2.93
2023-03-15T08:43:23.701Z,2.60
2023-03-15T08:46:00.586Z,2.40
2023-03-15T08:48:27.752Z,2.67
2023-03-15T08:50:54.200Z,2.60
2023-03-15T08:53:20.896Z,3.13
2023-03-15T08:55:48.798Z,2.57
2023-03-15T08:58:15.212Z,2.80
2023-03-15T09:00:41.659Z,2.73
2023-03-15T09:03:08.681Z,3.03
2023-03-15T09:05:36.018Z,2.83
2023-03-15T09:08:02.465Z,2.57
2023-03-15T09:10:28.870Z,1.70
2023-03-15T09:12:55.543Z,2.20
2023-03-15T09:15:22.102Z,1.60
2023-03-15T09:17:50.913Z,1.60
2023-03-15T09:20:19.070Z,1.57
2023-03-15T09:22:52.042Z,1.60
2023-03-15T09:25:18.933Z,1.70
2023-03-15T09:27:45.729Z,1.83
2023-03-15T09:30:13.476Z,1.70
2023-03-15T09:32:40.109Z,1.60
2023-03-15T09:35:08.835Z,2.00
2023-03-15T09:37:35.254Z,1.80
2023-03-15T09:40:02.134Z,1.77
2023-03-15T09:42:53.175Z,1.93
2023-03-15T09:45:56.613Z,1.60
2023-03-15T09:48:33.330Z,1.53
2023-03-15T09:51:07.937Z,1.30
2023-03-15T09:53:46.739Z,1.60
2023-03-15T09:56:29.033Z,1.47
2023-03-15T09:58:58.606Z,1.20
2023-03-15T10:01:34.955Z,1.13
2023-03-15T10:04:28.238Z,1.33
2023-03-15T10:06:57.264Z,1.40
2023-03-15T10:09:26.959Z,1.30
2023-03-15T10:12:07.078Z,1.27
2023-03-15T10:14:46.914Z,1.43
2023-03-15T10:17:16.401Z,1.47
2023-03-15T10:19:50.285Z,1.50
2023-03-15T10:22:30.018Z,1.10
2023-03-15T10:25:00.477Z,2.10
2023-03-15T10:27:36.926Z,1.57
2023-03-15T10:30:15.623Z,1.20
2023-03-15T10:32:43.737Z,1.25
2023-03-15T10:35:18.054Z,1.43
2023-03-15T10:37:44.946Z,1.23
2023-03-15T10:40:16.020Z,1.23
2023-03-15T10:42:44.588Z,1.40
2023-03-15T10:45:23.099Z,1.23
2023-03-15T10:47:59.431Z,0.95
2023-03-15T10:50:30.083Z,0.93
2023-03-15T10:52:58.127Z,1.13
2023-03-15T10:55:33.139Z,1.20
2023-03-15T10:58:13.405Z,1.92
2023-03-15T11:00:49.478Z,1.55
2023-03-15T11:03:18.695Z,1.02
2023-03-15T11:05:49.027Z,1.10
2023-03-15T11:08:18.486Z,1.27
2023-03-15T11:10:46.446Z,1.40
2023-03-15T11:13:23.331Z,1.42
2023-03-15T11:16:04.917Z,1.05
2023-03-15T11:18:38.165Z,1.33
2023-03-15T11:21:10.546Z,1.35
2023-03-15T11:23:38.962Z,1.17
2023-03-15T11:26:06.234Z,1.60
2023-03-15T11:28:35.720Z,1.20
2023-03-15T11:31:04.618Z,1.83
2023-03-15T11:34:03.642Z,1.85
2023-03-15T11:36:32.386Z,0.95
2023-03-15T11:39:02.930Z,1.10
2023-03-15T11:41:43.810Z,1.13
2023-03-15T11:44:12.749Z,1.27
2023-03-15T11:46:50.777Z,1.40
2023-03-15T11:49:35.266Z,1.08
2023-03-15T11:52:02.194Z,1.77
2023-03-15T11:54:30.237Z,1.13
2023-03-15T11:57:17.977Z,1.40
2023-03-15T11:59:45.870Z,1.45
2023-03-15T12:02:13.989Z,1.50
2023-03-15T12:04:46.084Z,1.58
2023-03-15T12:07:24.608Z,1.20
2023-03-15T12:09:56.270Z,1.27
2023-03-15T12:12:25.801Z,1.30
2023-03-15T12:15:14.318Z,1.17
2023-03-15T12:17:50.531Z,1.20
2023-03-15T12:20:19.765Z,1.30
2023-03-15T12:22:51.994Z,1.17
2023-03-15T12:25:48.861Z,1.48
2023-03-15T12:28:31.545Z,0.70
2023-03-15T12:31:01.764Z,1.38
2023-03-15T12:33:30.177Z,0.95
2023-03-15T12:36:08.360Z,1.17
2023-03-15T12:38:41.820Z,1.00
2023-03-15T12:41:10.066Z,1.10
2023-03-15T12:43:44.477Z,0.98
2023-03-15T12:46:46.096Z,0.95
2023-03-15T12:49:14.870Z,0.70
2023-03-15T12:51:44.865Z,0.73
2023-03-15T12:54:14.110Z,0.65
2023-03-15T12:56:43.189Z,0.50
2023-03-15T12:59:17.901Z,1.00
2023-03-15T13:01:45.228Z,1.30
2023-03-15T13:04:12.780Z,0.85
2023-03-15T13:06:52.983Z,0.67
2023-03-15T13:09:49.374Z,0.70
2023-03-15T13:12:31.618Z,0.60
2023-03-15T13:15:02.093Z,0.57
2023-03-15T13:17:38.084Z,0.45
2023-03-15T13:20:28.222Z,0.63
2023-03-15T13:23:03.647Z,0.60
2023-03-15T13:25:34.335Z,0.70
2023-03-15T13:28:37.087Z,0.60
2023-03-15T13:31:20.486Z,0.50
2023-03-15T13:33:48.524Z,0.63
2023-03-15T13:36:23.488Z,0.90
2023-03-15T13:38:51.621Z,0.65
2023-03-15T13:41:24.661Z,0.68
2023-03-15T13:43:53.113Z,0.90
2023-03-15T13:46:24.457Z,1.00
2023-03-15T13:48:52.262Z,0.82
2023-03-15T13:51:22.576Z,0.95
2023-03-15T13:53:51.726Z,0.88
2023-03-15T13:56:20.428Z,0.57
2023-03-15T13:58:47.634Z,0.80
2023-03-15T14:01:15.063Z,1.20
2023-03-15T14:03:43.921Z,1.08
2023-03-15T14:06:13.726Z,0.90
2023-03-15T14:08:40.579Z,1.20
2023-03-15T14:11:12.148Z,0.73
2023-03-15T14:13:51.964Z,1.02
2023-03-15T14:17:03.517Z,1.08
2023-03-15T14:19:31.782Z,0.88
2023-03-15T14:22:03.641Z,1.00
2023-03-15T14:24:34.555Z,0.95
2023-03-15T14:27:04.817Z,1.08
2023-03-15T14:29:39.163Z,1.05
2023-03-15T14:32:23.644Z,1.00
2023-03-15T14:34:50.143Z,1.00
2023-03-15T14:37:30.438Z,1.30
2023-03-15T14:40:14.990Z,1.20
2023-03-15T14:42:42.773Z,0.82
2023-03-15T14:45:09.718Z,0.90
2023-03-15T14:47:55.107Z,1.20
2023-03-15T14:50:23.803Z,1.25
2023-03-15T14:52:51.298Z,1.40
2023-03-15T14:55:29.248Z,1.10
2023-03-15T14:57:55.682Z,0.80
2023-03-15T15:00:22.364Z,1.23
2023-03-15T15:02:51.785Z,0.85
2023-03-15T15:05:23.539Z,1.00
2023-03-15T15:07:54.574Z,1.07
2023-03-15T15:10:22.567Z,1.05
2023-03-15T15:12:56.377Z,0.70
2023-03-15T15:15:33.586Z,0.70
2023-03-15T15:18:01.822Z,1.23
2023-03-15T15:20:28.241Z,0.90
2023-03-15T15:22:54.680Z,0.90
2023-03-15T15:25:24.077Z,0.90
2023-03-15T15:27:50.747Z,1.00
2023-03-15T15:30:20.774Z,0.83
2023-03-15T15:32:47.484Z,0.90
2023-03-15T15:35:16.686Z,0.80
2023-03-15T15:37:44.783Z,0.90
2023-03-15T15:40:20.358Z,0.80
2023-03-15T15:42:47.081Z,0.70
2023-03-15T15:45:15.603Z,0.75
2023-03-15T15:47:42.437Z,0.70
2023-03-15T15:50:13.888Z,0.68
2023-03-15T15:52:42.048Z,0.90
2023-03-15T15:55:13.951Z,1.00
2023-03-15T15:57:40.939Z,0.80
2023-03-15T16:00:09.240Z,0.90
2023-03-15T16:02:35.711Z,0.87
2023-03-15T16:05:02.184Z,0.70
2023-03-15T16:07:29.035Z,0.83
2023-03-15T16:09:56.516Z,1.20
2023-03-15T16:12:24.284Z,1.00
2023-03-15T16:14:50.794Z,0.70
2023-03-15T16:17:21.462Z,0.70
2023-03-15T16:19:51.806Z,0.80
2023-03-15T16:22:20.282Z,0.87
2023-03-15T16:24:50.778Z,0.80
2023-03-15T16:27:18.556Z,0.77
2023-03-15T16:29:47.475Z,0.77
2023-03-15T16:32:26.721Z,1.10
2023-03-15T16:35:00.934Z,0.90
2023-03-15T16:37:30.874Z,0.80
2023-03-15T16:40:00.051Z,0.83
2023-03-15T16:42:26.516Z,1.10
2023-03-15T16:44:59.503Z,1.20
2023-03-15T16:47:25.958Z,0.90
2023-03-15T16:49:52.430Z,1.20
2023-03-15T16:52:18.832Z,0.80
2023-03-15T16:54:47.566Z,0.90
2023-03-15T16:57:19.200Z,0.70
2023-03-15T16:59:45.672Z,0.70
2023-03-15T17:02:26.249Z,0.90
2023-03-15T17:04:52.893Z,0.50
2023-03-15T17:07:24.730Z,0.90
2023-03-15T17:09:52.215Z,0.80
2023-03-15T17:12:24.930Z,0.87
2023-03-15T17:14:52.633Z,1.00
2023-03-15T17:17:19.053Z,0.70
2023-03-15T17:19:45.648Z,1.27
2023-03-15T17:22:12.166Z,0.93
2023-03-15T17:24:38.706Z,1.03
2023-03-15T17:27:05.208Z,0.90
2023-03-15T17:29:31.668Z,1.00
2023-03-15T17:31:58.200Z,1.00
2023-03-15T17:34:24.825Z,0.90
2023-03-15T17:36:51.239Z,0.93
2023-03-15T17:39:17.672Z,1.00
2023-03-15T17:41:46.791Z,0.90
2023-03-15T17:44:13.428Z,0.90
2023-03-15T17:46:39.935Z,1.07
2023-03-15T17:49:08.917Z,0.90
2023-03-15T17:51:36.681Z,0.90
2023-03-15T17:54:12.161Z,1.53
2023-03-15T17:56:38.590Z,1.80
2023-03-15T17:59:05.136Z,1.40
2023-03-15T18:01:41.162Z,1.90
2023-03-15T18:04:12.236Z,1.60
2023-03-15T18:06:39.249Z,1.60
2023-03-15T18:09:05.695Z,1.60
2023-03-15T18:11:35.718Z,2.27
2023-03-15T18:14:05.110Z,1.40
2023-03-15T18:16:32.069Z,1.50
2023-03-15T18:18:58.542Z,1.70
2023-03-15T18:21:26.864Z,1.70
2023-03-15T18:23:54.115Z,1.40
2023-03-15T18:26:20.920Z,1.83
2023-03-15T18:28:48.945Z,1.57
2023-03-15T18:31:20.742Z,1.63
2023-03-15T18:33:47.380Z,1.60
2023-03-15T18:36:13.829Z,2.50
2023-03-15T18:38:40.832Z,2.20
2023-03-15T18:41:24.788Z,1.93
2023-03-15T18:43:51.594Z,2.27
2023-03-15T18:46:19.681Z,3.07
2023-03-15T18:48:46.992Z,2.63
2023-03-15T18:53:44.641Z,1.90
2023-03-15T18:56:20.044Z,2.10
2023-03-15T18:58:47.860Z,1.67
2023-03-15T19:01:15.858Z,2.00
2023-03-15T19:03:42.655Z,1.87
2023-03-15T19:06:11.720Z,2.33
2023-03-15T19:08:38.448Z,2.10
2023-03-15T19:11:05.999Z,2.13
2023-03-15T19:13:32.457Z,2.17
2023-03-15T19:15:58.879Z,2.70
2023-03-15T19:18:25.699Z,2.30
2023-03-15T19:20:52.807Z,1.90
2023-03-15T19:23:20.259Z,2.40
2023-03-15T19:25:47.507Z,2.73
2023-03-15T19:28:14.187Z,2.07
2023-03-15T19:30:41.486Z,2.00
2023-03-15T19:33:08.269Z,2.40
2023-03-15T19:35:34.830Z,1.90
2023-03-15T19:38:01.429Z,2.13
2023-03-15T19:40:27.903Z,1.93
2023-03-15T19:42:54.329Z,2.27
2023-03-15T19:45:20.853Z,2.30
2023-03-15T19:47:47.283Z,2.83
2023-03-15T19:50:14.537Z,2.40
2023-03-15T19:52:46.055Z,2.43
2023-03-15T19:55:14.229Z,2.07
2023-03-15T19:57:40.756Z,1.70
2023-03-15T20:00:12.497Z,1.47
2023-03-15T20:02:41.082Z,1.57
2023-03-15T20:05:09.432Z,1.73
2023-03-15T20:07:36.760Z,1.87
2023-03-15T20:10:04.859Z,1.50
2023-03-15T20:12:32.262Z,1.77
2023-03-15T20:14:58.781Z,1.60
2023-03-15T20:17:26.851Z,1.53
2023-03-15T20:19:53.294Z,1.23
2023-03-15T20:22:19.814Z,1.37
2023-03-15T20:24:46.343Z,1.80
2023-03-15T20:27:13.228Z,1.50
2023-03-15T20:29:39.645Z,1.53
2023-03-15T20:32:06.133Z,1.63
2023-03-15T20:34:32.564Z,1.70
2023-03-15T20:36:59.315Z,1.97
2023-03-15T20:39:25.892Z,1.70
2023-03-15T20:41:52.305Z,1.40
2023-03-15T20:44:19.717Z,1.60
2023-03-15T20:46:46.254Z,1.60
2023-03-15T20:49:14.168Z,1.70
2023-03-15T20:51:40.572Z,1.20
2023-03-15T20:54:07.016Z,1.30
2023-03-15T20:56:34.254Z,1.37
2023-03-15T20:59:01.117Z,1.50
2023-03-15T21:01:27.559Z,1.43
2023-03-15T21:03:56.118Z,1.20
2023-03-15T21:06:22.764Z,1.20
2023-03-15T21:08:49.231Z,1.20
2023-03-15T21:11:15.625Z,1.20
2023-03-15T21:13:42.065Z,1.27
2023-03-15T21:16:08.594Z,1.10
2023-03-15T21:18:36.082Z,1.23
2023-03-15T21:21:05.065Z,1.10
2023-03-15T21:23:31.600Z,1.60
2023-03-15T21:25:59.276Z,1.20
2023-03-15T21:28:26.206Z,1.47
2023-03-15T21:30:53.292Z,1.07
2023-03-15T21:33:21.051Z,1.87
2023-03-15T21:35:47.596Z,1.27
2023-03-15T21:38:14.335Z,1.50
2023-03-15T21:40:48.634Z,1.23
2023-03-15T21:43:15.130Z,1.37
2023-03-15T21:45:42.029Z,1.73
2023-03-15T21:48:08.692Z,2.00
2023-03-15T21:50:35.365Z,2.00
2023-03-15T21:53:01.914Z,2.87
2023-03-15T21:55:31.202Z,3.30
2023-03-15T21:57:57.614Z,2.40
2023-03-15T22:00:24.452Z,2.57
2023-03-15T22:02:55.236Z,1.77
2023-03-15T22:05:22.227Z,1.80
2023-03-15T22:07:48.791Z,1.37
2023-03-15T22:10:15.562Z,1.70
2023-03-15T22:12:42.460Z,1.37
2023-03-15T22:15:09.902Z,1.20
2023-03-15T22:17:36.295Z,1.60
2023-03-15T22:20:07.937Z,1.70
2023-03-15T22:22:34.383Z,1.50
2023-03-15T22:25:00.812Z,1.30
2023-03-15T22:27:27.244Z,1.43
2023-03-15T22:29:53.733Z,1.80
2023-03-15T22:32:20.211Z,1.57
2023-03-15T22:34:46.791Z,1.70
2023-03-15T22:37:13.269Z,1.87
2023-03-15T22:39:39.773Z,1.80
2023-03-15T22:42:06.306Z,1.43
2023-03-15T22:44:32.727Z,1.60
2023-03-15T22:46:59.162Z,1.50
2023-03-15T22:49:25.610Z,1.57
2023-03-15T22:51:52.049Z,1.40
2023-03-15T22:54:18.465Z,1.70
2023-03-15T22:56:44.970Z,1.47
2023-03-15T22:59:11.392Z,1.83
2023-03-15T23:01:37.880Z,1.73
2023-03-15T23:04:04.471Z,2.00
2023-03-15T23:06:30.894Z,2.13
2023-03-15T23:08:57.316Z,2.23
2023-03-15T23:11:23.724Z,2.00
2023-03-15T23:13:50.305Z,1.80
2023-03-15T23:16:17.497Z,1.77
2023-03-15T23:18:44.084Z,1.90
2023-03-15T23:21:14.370Z,1.50
2023-03-15T23:23:42.992Z,1.60
2023-03-15T23:26:09.623Z,1.50
2023-03-15T23:28:36.271Z,1.63
2023-03-15T23:31:05.036Z,1.70
2023-03-15T23:33:34.846Z,1.37
2023-03-15T23:36:02.623Z,2.27
2023-03-15T23:38:29.279Z,1.97
2023-03-15T23:40:57.323Z,1.70
2023-03-15T23:43:23.906Z,1.87
2023-03-15T23:45:58.036Z,1.70
2023-03-15T23:48:25.080Z,1.50
2023-03-15T23:50:58.352Z,1.27
2023-03-15T23:53:25.508Z,1.70
2023-03-15T23:55:52.626Z,1.90
2023-03-15T23:58:19.527Z,1.90
